Main page
METAR-TAF:

METAR-TAF

Airports :

Montichiari

Brescia, Italy

latitude: 45-24-02N, longitude: 010-18-59E, elevation: 104 m

Current weather observation

The report was made 32 minutes ago, at 16:50 UTC
Wind 13 kt from the Southeast
Temperature 17°C
Humidity 52%
Pressure 1009 hPa
Visibility 10 km or more
Broken clouds at a height of 5000 ft

METAR: LIPO 221650Z 13013KT 9999 BKN050 17/07 Q1009

Time: 19:22 (17:22 UTC)

Forecast

The report was made 6 hours and 22 minutes ago, at 11:00 UTC
Forecast valid from 22 at 12 UTC to 23 at 12 UTC
Wind 15 kt from the East/Southeast
Visibility 10 km or more
Broken clouds at a height of 6000 ft
Becoming
from 22 at 19 UTC to 22 at 21 UTC
Visibility: 4000 m
Broken clouds at a height of 1200 ft
Broken clouds at a height of 5000 ft
rain

TAF: LIPO 221100Z 2212/2312 12015KT 9999 BKN060 BECMG 2219/2221 4000 RA BKN012 BKN050

Weather observations and forecasts of more than 4000 airports (METAR and TAF reports).

The available stations are represented by yellow and red dots on the map.

Hover mouse over dot to see the name of the station.

Then click to see weather observations and forecasts.

To change the map : click on the green buttons with a black cross to zoom in, on the green button with a dash to zoom out, or on the green arrows for adjacent maps.


METAR-TAF: